sensor_id;sensor_type;location;lat;lon;timestamp;temperature;humidity
49765;DHT22;35657;51.204;-4.130;2023-08-21T00:01:19;18.20;99.90
49765;DHT22;35657;51.204;-4.130;2023-08-21T00:03:44;18.20;99.90
49765;DHT22;35657;51.204;-4.130;2023-08-21T00:06:10;18.20;99.90
49765;DHT22;35657;51.204;-4.130;2023-08-21T00:08:36;18.10;99.90
49765;DHT22;35657;51.204;-4.130;2023-08-21T00:11:02;18.10;99.90
49765;DHT22;35657;51.204;-4.130;2023-08-21T00:13:28;18.10;99.90
49765;DHT22;35657;51.204;-4.130;2023-08-21T00:15:54;18.00;99.90
49765;DHT22;35657;51.204;-4.130;2023-08-21T00:18:21;18.10;99.90
49765;DHT22;35657;51.204;-4.130;2023-08-21T00:20:47;18.00;99.90
49765;DHT22;35657;51.204;-4.130;2023-08-21T00:23:12;18.10;99.90
49765;DHT22;35657;51.204;-4.130;2023-08-21T00:25:38;18.10;99.90
49765;DHT22;35657;51.204;-4.130;2023-08-21T00:28:04;18.10;99.90
49765;DHT22;35657;51.204;-4.130;2023-08-21T00:30:30;18.10;99.90
49765;DHT22;35657;51.204;-4.130;2023-08-21T00:32:55;18.10;99.90
49765;DHT22;35657;51.204;-4.130;2023-08-21T00:35:21;18.10;99.90
49765;DHT22;35657;51.204;-4.130;2023-08-21T00:37:47;18.20;99.90
49765;DHT22;35657;51.204;-4.130;2023-08-21T00:40:12;18.20;99.90
49765;DHT22;35657;51.204;-4.130;2023-08-21T00:42:39;18.00;99.90
49765;DHT22;35657;51.204;-4.130;2023-08-21T00:45:05;18.00;99.90
49765;DHT22;35657;51.204;-4.130;2023-08-21T00:47:34;18.00;99.90
49765;DHT22;35657;51.204;-4.130;2023-08-21T00:50:00;17.90;99.90
49765;DHT22;35657;51.204;-4.130;2023-08-21T00:52:27;17.90;99.90
49765;DHT22;35657;51.204;-4.130;2023-08-21T00:54:53;17.80;99.90
49765;DHT22;35657;51.204;-4.130;2023-08-21T00:57:20;17.80;99.90
49765;DHT22;35657;51.204;-4.130;2023-08-21T00:59:47;17.80;99.90
49765;DHT22;35657;51.204;-4.130;2023-08-21T01:02:12;17.80;99.90
49765;DHT22;35657;51.204;-4.130;2023-08-21T01:04:38;17.80;99.90
49765;DHT22;35657;51.204;-4.130;2023-08-21T01:07:04;17.80;99.90
49765;DHT22;35657;51.204;-4.130;2023-08-21T01:09:50;17.70;99.90
49765;DHT22;35657;51.204;-4.130;2023-08-21T01:14:51;17.80;99.90
49765;DHT22;35657;51.204;-4.130;2023-08-21T01:17:20;17.80;99.90
49765;DHT22;35657;51.204;-4.130;2023-08-21T01:19:48;17.90;99.90
49765;DHT22;35657;51.204;-4.130;2023-08-21T01:22:15;17.90;99.90
49765;DHT22;35657;51.204;-4.130;2023-08-21T01:24:41;17.80;99.90
49765;DHT22;35657;51.204;-4.130;2023-08-21T01:27:07;17.80;99.90
49765;DHT22;35657;51.204;-4.130;2023-08-21T01:29:33;17.70;99.90
49765;DHT22;35657;51.204;-4.130;2023-08-21T01:32:28;17.70;99.90
49765;DHT22;35657;51.204;-4.130;2023-08-21T01:34:55;17.60;99.90
49765;DHT22;35657;51.204;-4.130;2023-08-21T01:37:22;17.60;99.90
49765;DHT22;35657;51.204;-4.130;2023-08-21T01:39:49;17.60;99.90
49765;DHT22;35657;51.204;-4.130;2023-08-21T01:42:14;17.60;99.90
49765;DHT22;35657;51.204;-4.130;2023-08-21T01:44:40;17.50;99.90
49765;DHT22;35657;51.204;-4.130;2023-08-21T01:47:06;17.50;99.90
49765;DHT22;35657;51.204;-4.130;2023-08-21T01:49:32;17.50;99.90
49765;DHT22;35657;51.204;-4.130;2023-08-21T01:51:57;17.50;99.90
49765;DHT22;35657;51.204;-4.130;2023-08-21T01:54:23;17.50;99.90
49765;DHT22;35657;51.204;-4.130;2023-08-21T01:56:49;17.50;99.90
49765;DHT22;35657;51.204;-4.130;2023-08-21T01:59:16;17.50;99.90
49765;DHT22;35657;51.204;-4.130;2023-08-21T02:01:42;17.60;99.90
49765;DHT22;35657;51.204;-4.130;2023-08-21T02:04:07;17.60;99.90
49765;DHT22;35657;51.204;-4.130;2023-08-21T02:06:33;17.70;99.90
49765;DHT22;35657;51.204;-4.130;2023-08-21T02:08:59;17.60;99.90
49765;DHT22;35657;51.204;-4.130;2023-08-21T02:11:24;17.50;99.90
49765;DHT22;35657;51.204;-4.130;2023-08-21T02:13:50;17.40;99.90
49765;DHT22;35657;51.204;-4.130;2023-08-21T02:16:16;17.40;99.90
49765;DHT22;35657;51.204;-4.130;2023-08-21T02:18:41;17.40;99.90
49765;DHT22;35657;51.204;-4.130;2023-08-21T02:21:07;17.40;99.90
49765;DHT22;35657;51.204;-4.130;2023-08-21T02:23:33;17.40;99.90
49765;DHT22;35657;51.204;-4.130;2023-08-21T02:25:58;17.40;99.90
49765;DHT22;35657;51.204;-4.130;2023-08-21T02:28:24;17.40;99.90
49765;DHT22;35657;51.204;-4.130;2023-08-21T02:30:50;17.50;99.90
49765;DHT22;35657;51.204;-4.130;2023-08-21T02:33:16;17.40;99.90
49765;DHT22;35657;51.204;-4.130;2023-08-21T02:35:41;17.40;99.90
49765;DHT22;35657;51.204;-4.130;2023-08-21T02:38:07;17.40;99.90
49765;DHT22;35657;51.204;-4.130;2023-08-21T02:40:33;17.40;99.90
49765;DHT22;35657;51.204;-4.130;2023-08-21T02:42:59;17.40;99.90
49765;DHT22;35657;51.204;-4.130;2023-08-21T02:45:24;17.40;99.90
49765;DHT22;35657;51.204;-4.130;2023-08-21T02:47:50;17.50;99.90
49765;DHT22;35657;51.204;-4.130;2023-08-21T02:50:16;17.50;99.90
49765;DHT22;35657;51.204;-4.130;2023-08-21T02:52:41;17.40;99.90
49765;DHT22;35657;51.204;-4.130;2023-08-21T02:55:07;17.40;99.90
49765;DHT22;35657;51.204;-4.130;2023-08-21T02:57:33;17.30;99.90
49765;DHT22;35657;51.204;-4.130;2023-08-21T02:59:59;17.40;99.90
49765;DHT22;35657;51.204;-4.130;2023-08-21T03:02:25;17.30;99.90
49765;DHT22;35657;51.204;-4.130;2023-08-21T03:04:51;17.30;99.90
49765;DHT22;35657;51.204;-4.130;2023-08-21T03:07:16;17.40;99.90
49765;DHT22;35657;51.204;-4.130;2023-08-21T03:09:45;17.30;99.90
49765;DHT22;35657;51.204;-4.130;2023-08-21T03:12:12;17.30;99.90
49765;DHT22;35657;51.204;-4.130;2023-08-21T03:14:38;17.30;99.90
49765;DHT22;35657;51.204;-4.130;2023-08-21T03:17:04;17.20;99.90
49765;DHT22;35657;51.204;-4.130;2023-08-21T03:22:52;17.30;99.90
49765;DHT22;35657;51.204;-4.130;2023-08-21T03:25:17;17.30;99.90
49765;DHT22;35657;51.204;-4.130;2023-08-21T03:27:43;17.30;99.90
49765;DHT22;35657;51.204;-4.130;2023-08-21T03:30:11;17.30;99.90
49765;DHT22;35657;51.204;-4.130;2023-08-21T03:32:40;17.30;99.90
49765;DHT22;35657;51.204;-4.130;2023-08-21T03:35:05;17.30;99.90
49765;DHT22;35657;51.204;-4.130;2023-08-21T03:37:31;17.20;99.90
49765;DHT22;35657;51.204;-4.130;2023-08-21T03:39:57;17.20;99.90
49765;DHT22;35657;51.204;-4.130;2023-08-21T03:42:22;17.20;99.90
49765;DHT22;35657;51.204;-4.130;2023-08-21T03:44:48;17.20;99.90
49765;DHT22;35657;51.204;-4.130;2023-08-21T03:47:16;17.20;99.90
49765;DHT22;35657;51.204;-4.130;2023-08-21T03:49:42;17.20;99.90
49765;DHT22;35657;51.204;-4.130;2023-08-21T03:52:07;17.20;99.90
49765;DHT22;35657;51.204;-4.130;2023-08-21T03:54:33;17.10;99.90
49765;DHT22;35657;51.204;-4.130;2023-08-21T03:56:59;17.20;99.90
49765;DHT22;35657;51.204;-4.130;2023-08-21T03:59:24;17.20;99.90
49765;DHT22;35657;51.204;-4.130;2023-08-21T04:01:53;17.20;99.90
49765;DHT22;35657;51.204;-4.130;2023-08-21T04:04:19;17.20;99.90
49765;DHT22;35657;51.204;-4.130;2023-08-21T04:06:44;17.20;99.90
49765;DHT22;35657;51.204;-4.130;2023-08-21T04:09:10;17.20;99.90
49765;DHT22;35657;51.204;-4.130;2023-08-21T04:11:36;17.20;99.90
49765;DHT22;35657;51.204;-4.130;2023-08-21T04:14:02;17.20;99.90
49765;DHT22;35657;51.204;-4.130;2023-08-21T04:16:27;17.10;99.90
49765;DHT22;35657;51.204;-4.130;2023-08-21T04:18:54;17.10;99.90
49765;DHT22;35657;51.204;-4.130;2023-08-21T04:21:19;17.10;99.90
49765;DHT22;35657;51.204;-4.130;2023-08-21T04:23:45;17.10;99.90
49765;DHT22;35657;51.204;-4.130;2023-08-21T04:26:11;17.10;99.90
49765;DHT22;35657;51.204;-4.130;2023-08-21T04:28:37;17.10;99.90
49765;DHT22;35657;51.204;-4.130;2023-08-21T04:31:06;17.10;99.90
49765;DHT22;35657;51.204;-4.130;2023-08-21T04:33:32;17.10;99.90
49765;DHT22;35657;51.204;-4.130;2023-08-21T04:35:58;17.10;99.90
49765;DHT22;35657;51.204;-4.130;2023-08-21T04:38:24;17.10;99.90
49765;DHT22;35657;51.204;-4.130;2023-08-21T04:40:50;17.10;99.90
49765;DHT22;35657;51.204;-4.130;2023-08-21T04:43:17;17.10;99.90
49765;DHT22;35657;51.204;-4.130;2023-08-21T04:45:48;17.00;99.90
49765;DHT22;35657;51.204;-4.130;2023-08-21T04:48:14;17.10;99.90
49765;DHT22;35657;51.204;-4.130;2023-08-21T04:50:39;17.10;99.90
49765;DHT22;35657;51.204;-4.130;2023-08-21T04:53:05;17.10;99.90
49765;DHT22;35657;51.204;-4.130;2023-08-21T04:55:31;17.10;99.90
49765;DHT22;35657;51.204;-4.130;2023-08-21T04:57:57;17.10;99.90
49765;DHT22;35657;51.204;-4.130;2023-08-21T05:00:22;17.10;99.90
49765;DHT22;35657;51.204;-4.130;2023-08-21T05:02:48;17.20;99.90
49765;DHT22;35657;51.204;-4.130;2023-08-21T05:05:14;17.20;99.90
49765;DHT22;35657;51.204;-4.130;2023-08-21T05:07:40;17.20;99.90
49765;DHT22;35657;51.204;-4.130;2023-08-21T05:10:06;17.10;99.90
49765;DHT22;35657;51.204;-4.130;2023-08-21T05:12:31;17.10;99.90
49765;DHT22;35657;51.204;-4.130;2023-08-21T05:14:57;17.10;99.90
49765;DHT22;35657;51.204;-4.130;2023-08-21T05:17:24;17.10;99.90
49765;DHT22;35657;51.204;-4.130;2023-08-21T05:19:51;17.10;99.90
49765;DHT22;35657;51.204;-4.130;2023-08-21T05:22:17;17.10;99.90
49765;DHT22;35657;51.204;-4.130;2023-08-21T05:24:42;17.10;99.90
49765;DHT22;35657;51.204;-4.130;2023-08-21T05:27:08;17.10;99.90
49765;DHT22;35657;51.204;-4.130;2023-08-21T05:29:34;17.10;99.90
49765;DHT22;35657;51.204;-4.130;2023-08-21T05:32:00;17.20;99.90
49765;DHT22;35657;51.204;-4.130;2023-08-21T05:34:26;17.20;99.90
49765;DHT22;35657;51.204;-4.130;2023-08-21T05:36:51;17.20;99.90
49765;DHT22;35657;51.204;-4.130;2023-08-21T05:39:20;17.20;99.90
49765;DHT22;35657;51.204;-4.130;2023-08-21T05:41:46;17.30;99.90
49765;DHT22;35657;51.204;-4.130;2023-08-21T05:44:11;17.30;99.90
49765;DHT22;35657;51.204;-4.130;2023-08-21T05:46:37;17.40;99.90
49765;DHT22;35657;51.204;-4.130;2023-08-21T05:49:06;17.50;99.90
49765;DHT22;35657;51.204;-4.130;2023-08-21T05:51:31;17.40;99.90
49765;DHT22;35657;51.204;-4.130;2023-08-21T05:53:57;17.40;99.90
49765;DHT22;35657;51.204;-4.130;2023-08-21T05:56:23;17.40;99.90
49765;DHT22;35657;51.204;-4.130;2023-08-21T05:58:49;17.40;99.90
49765;DHT22;35657;51.204;-4.130;2023-08-21T06:01:15;17.40;99.90
49765;DHT22;35657;51.204;-4.130;2023-08-21T06:03:40;17.40;99.90
49765;DHT22;35657;51.204;-4.130;2023-08-21T06:06:06;17.40;99.90
49765;DHT22;35657;51.204;-4.130;2023-08-21T06:08:32;17.40;99.90
49765;DHT22;35657;51.204;-4.130;2023-08-21T06:10:58;17.50;99.90
49765;DHT22;35657;51.204;-4.130;2023-08-21T06:13:24;17.50;99.90
49765;DHT22;35657;51.204;-4.130;2023-08-21T06:15:50;17.50;99.90
49765;DHT22;35657;51.204;-4.130;2023-08-21T06:18:16;17.50;99.90
49765;DHT22;35657;51.204;-4.130;2023-08-21T06:20:44;17.50;99.90
49765;DHT22;35657;51.204;-4.130;2023-08-21T06:23:10;17.60;99.90
49765;DHT22;35657;51.204;-4.130;2023-08-21T06:25:36;17.70;99.90
49765;DHT22;35657;51.204;-4.130;2023-08-21T06:28:02;17.80;99.90
49765;DHT22;35657;51.204;-4.130;2023-08-21T06:30:28;17.80;99.90
49765;DHT22;35657;51.204;-4.130;2023-08-21T06:32:55;17.80;99.90
49765;DHT22;35657;51.204;-4.130;2023-08-21T06:35:20;17.80;99.90
49765;DHT22;35657;51.204;-4.130;2023-08-21T06:37:46;17.70;99.90
49765;DHT22;35657;51.204;-4.130;2023-08-21T06:40:12;17.70;99.90
49765;DHT22;35657;51.204;-4.130;2023-08-21T06:42:37;17.70;99.90
49765;DHT22;35657;51.204;-4.130;2023-08-21T06:45:05;17.70;99.90
49765;DHT22;35657;51.204;-4.130;2023-08-21T06:47:31;17.70;99.90
49765;DHT22;35657;51.204;-4.130;2023-08-21T06:49:56;17.70;99.90
49765;DHT22;35657;51.204;-4.130;2023-08-21T06:52:22;17.70;99.90
49765;DHT22;35657;51.204;-4.130;2023-08-21T06:54:48;17.70;99.90
49765;DHT22;35657;51.204;-4.130;2023-08-21T06:57:13;17.80;99.90
49765;DHT22;35657;51.204;-4.130;2023-08-21T06:59:39;17.80;99.90
49765;DHT22;35657;51.204;-4.130;2023-08-21T07:02:05;17.80;99.90
49765;DHT22;35657;51.204;-4.130;2023-08-21T07:04:31;17.80;99.90
49765;DHT22;35657;51.204;-4.130;2023-08-21T07:06:59;17.80;99.90
49765;DHT22;35657;51.204;-4.130;2023-08-21T07:09:24;17.80;99.90
49765;DHT22;35657;51.204;-4.130;2023-08-21T07:11:50;17.80;99.90
49765;DHT22;35657;51.204;-4.130;2023-08-21T07:14:16;18.00;99.90
49765;DHT22;35657;51.204;-4.130;2023-08-21T07:16:43;18.00;99.90
49765;DHT22;35657;51.204;-4.130;2023-08-21T07:19:09;18.00;99.90
49765;DHT22;35657;51.204;-4.130;2023-08-21T07:21:34;18.00;99.90
49765;DHT22;35657;51.204;-4.130;2023-08-21T07:24:04;18.00;99.90
49765;DHT22;35657;51.204;-4.130;2023-08-21T07:26:30;18.00;99.90
49765;DHT22;35657;51.204;-4.130;2023-08-21T07:28:56;17.90;99.90
49765;DHT22;35657;51.204;-4.130;2023-08-21T07:31:22;17.90;99.90
49765;DHT22;35657;51.204;-4.130;2023-08-21T07:33:48;17.90;99.90
49765;DHT22;35657;51.204;-4.130;2023-08-21T07:36:14;17.90;99.90
49765;DHT22;35657;51.204;-4.130;2023-08-21T07:38:45;17.90;99.90
49765;DHT22;35657;51.204;-4.130;2023-08-21T07:41:12;17.90;99.90
49765;DHT22;35657;51.204;-4.130;2023-08-21T07:43:41;18.00;99.90
49765;DHT22;35657;51.204;-4.130;2023-08-21T07:46:08;18.00;99.90
49765;DHT22;35657;51.204;-4.130;2023-08-21T07:48:35;18.00;99.90
49765;DHT22;35657;51.204;-4.130;2023-08-21T07:51:01;18.00;99.90
49765;DHT22;35657;51.204;-4.130;2023-08-21T07:53:28;18.00;99.90
49765;DHT22;35657;51.204;-4.130;2023-08-21T07:55:53;18.10;99.90
49765;DHT22;35657;51.204;-4.130;2023-08-21T07:58:20;18.10;99.90
49765;DHT22;35657;51.204;-4.130;2023-08-21T08:00:46;18.10;99.90
49765;DHT22;35657;51.204;-4.130;2023-08-21T08:03:11;18.10;99.90
49765;DHT22;35657;51.204;-4.130;2023-08-21T08:05:40;18.20;99.90
49765;DHT22;35657;51.204;-4.130;2023-08-21T08:08:06;18.20;99.90
49765;DHT22;35657;51.204;-4.130;2023-08-21T08:10:32;18.20;99.90
49765;DHT22;35657;51.204;-4.130;2023-08-21T08:12:58;18.30;99.90
49765;DHT22;35657;51.204;-4.130;2023-08-21T08:15:24;18.30;99.90
49765;DHT22;35657;51.204;-4.130;2023-08-21T08:17:50;18.40;99.90
49765;DHT22;35657;51.204;-4.130;2023-08-21T08:20:18;18.40;99.90
49765;DHT22;35657;51.204;-4.130;2023-08-21T08:22:44;18.50;99.90
49765;DHT22;35657;51.204;-4.130;2023-08-21T08:25:10;18.60;99.90
49765;DHT22;35657;51.204;-4.130;2023-08-21T08:27:36;18.70;99.90
49765;DHT22;35657;51.204;-4.130;2023-08-21T08:30:02;18.70;99.90
49765;DHT22;35657;51.204;-4.130;2023-08-21T08:32:29;18.80;99.90
49765;DHT22;35657;51.204;-4.130;2023-08-21T08:34:54;18.90;99.90
49765;DHT22;35657;51.204;-4.130;2023-08-21T08:37:20;18.90;99.90
49765;DHT22;35657;51.204;-4.130;2023-08-21T08:39:46;18.90;99.90
49765;DHT22;35657;51.204;-4.130;2023-08-21T08:42:13;19.00;99.90
49765;DHT22;35657;51.204;-4.130;2023-08-21T08:44:39;19.00;99.90
49765;DHT22;35657;51.204;-4.130;2023-08-21T08:47:10;19.10;99.90
49765;DHT22;35657;51.204;-4.130;2023-08-21T08:49:37;19.20;99.90
49765;DHT22;35657;51.204;-4.130;2023-08-21T08:52:03;19.20;99.90
49765;DHT22;35657;51.204;-4.130;2023-08-21T08:54:29;19.30;99.90
49765;DHT22;35657;51.204;-4.130;2023-08-21T08:56:55;19.30;99.90
49765;DHT22;35657;51.204;-4.130;2023-08-21T08:59:21;19.40;99.90
49765;DHT22;35657;51.204;-4.130;2023-08-21T09:01:49;19.50;99.90
49765;DHT22;35657;51.204;-4.130;2023-08-21T09:04:15;19.60;99.90
49765;DHT22;35657;51.204;-4.130;2023-08-21T09:06:40;19.60;99.90
49765;DHT22;35657;51.204;-4.130;2023-08-21T09:09:08;19.70;99.90
49765;DHT22;35657;51.204;-4.130;2023-08-21T09:11:42;19.70;99.90
49765;DHT22;35657;51.204;-4.130;2023-08-21T09:14:10;19.80;99.90
49765;DHT22;35657;51.204;-4.130;2023-08-21T09:16:36;19.90;99.90
49765;DHT22;35657;51.204;-4.130;2023-08-21T09:19:01;20.00;99.90
49765;DHT22;35657;51.204;-4.130;2023-08-21T09:21:28;20.20;99.90
49765;DHT22;35657;51.204;-4.130;2023-08-21T09:23:59;20.30;99.90
49765;DHT22;35657;51.204;-4.130;2023-08-21T09:26:26;20.50;99.90
49765;DHT22;35657;51.204;-4.130;2023-08-21T09:28:52;20.60;99.90
49765;DHT22;35657;51.204;-4.130;2023-08-21T09:31:29;20.70;99.90
49765;DHT22;35657;51.204;-4.130;2023-08-21T09:33:58;20.80;99.90
49765;DHT22;35657;51.204;-4.130;2023-08-21T09:36:29;20.80;99.90
49765;DHT22;35657;51.204;-4.130;2023-08-21T09:38:55;20.80;99.90
49765;DHT22;35657;51.204;-4.130;2023-08-21T09:41:22;20.70;99.90
49765;DHT22;35657;51.204;-4.130;2023-08-21T09:43:48;20.80;99.90
49765;DHT22;35657;51.204;-4.130;2023-08-21T09:46:33;20.80;99.90
49765;DHT22;35657;51.204;-4.130;2023-08-21T09:48:59;20.90;99.90
49765;DHT22;35657;51.204;-4.130;2023-08-21T09:51:28;20.90;99.90
49765;DHT22;35657;51.204;-4.130;2023-08-21T09:53:54;21.10;99.90
49765;DHT22;35657;51.204;-4.130;2023-08-21T09:56:20;21.10;99.90
49765;DHT22;35657;51.204;-4.130;2023-08-21T09:58:50;21.20;99.90
49765;DHT22;35657;51.204;-4.130;2023-08-21T10:01:17;21.20;99.90
49765;DHT22;35657;51.204;-4.130;2023-08-21T10:03:46;21.40;99.90
49765;DHT22;35657;51.204;-4.130;2023-08-21T10:06:16;21.40;99.90
49765;DHT22;35657;51.204;-4.130;2023-08-21T10:08:46;21.70;99.90
49765;DHT22;35657;51.204;-4.130;2023-08-21T10:11:13;21.80;99.90
49765;DHT22;35657;51.204;-4.130;2023-08-21T10:13:39;21.90;99.90
49765;DHT22;35657;51.204;-4.130;2023-08-21T10:16:07;22.00;99.90
49765;DHT22;35657;51.204;-4.130;2023-08-21T10:18:35;22.00;99.90
49765;DHT22;35657;51.204;-4.130;2023-08-21T10:21:12;21.80;99.90
49765;DHT22;35657;51.204;-4.130;2023-08-21T10:23:39;21.70;99.90
49765;DHT22;35657;51.204;-4.130;2023-08-21T10:26:06;21.80;99.90
49765;DHT22;35657;51.204;-4.130;2023-08-21T10:28:47;21.70;99.90
49765;DHT22;35657;51.204;-4.130;2023-08-21T10:31:31;21.60;99.90
49765;DHT22;35657;51.204;-4.130;2023-08-21T10:33:58;21.70;99.90
49765;DHT22;35657;51.204;-4.130;2023-08-21T10:36:40;21.70;99.90
49765;DHT22;35657;51.204;-4.130;2023-08-21T10:39:24;21.70;99.90
49765;DHT22;35657;51.204;-4.130;2023-08-21T10:42:07;21.60;99.90
49765;DHT22;35657;51.204;-4.130;2023-08-21T10:47:31;21.10;99.90
49765;DHT22;35657;51.204;-4.130;2023-08-21T10:49:59;21.10;99.90
49765;DHT22;35657;51.204;-4.130;2023-08-21T10:52:38;21.00;99.90
49765;DHT22;35657;51.204;-4.130;2023-08-21T10:58:26;21.30;99.90
49765;DHT22;35657;51.204;-4.130;2023-08-21T11:00:59;21.50;99.90
49765;DHT22;35657;51.204;-4.130;2023-08-21T11:03:25;21.60;99.90
49765;DHT22;35657;51.204;-4.130;2023-08-21T11:08:26;21.80;99.90
49765;DHT22;35657;51.204;-4.130;2023-08-21T11:10:53;21.90;99.90
49765;DHT22;35657;51.204;-4.130;2023-08-21T11:13:18;21.90;99.90
49765;DHT22;35657;51.204;-4.130;2023-08-21T11:15:45;21.90;99.90
49765;DHT22;35657;51.204;-4.130;2023-08-21T11:18:11;21.90;99.90
49765;DHT22;35657;51.204;-4.130;2023-08-21T11:20:37;22.10;99.90
49765;DHT22;35657;51.204;-4.130;2023-08-21T11:23:05;22.10;99.90
49765;DHT22;35657;51.204;-4.130;2023-08-21T11:25:33;22.20;99.90
49765;DHT22;35657;51.204;-4.130;2023-08-21T11:27:59;22.20;99.90
49765;DHT22;35657;51.204;-4.130;2023-08-21T11:30:26;22.20;99.90
49765;DHT22;35657;51.204;-4.130;2023-08-21T11:33:11;22.30;99.90
49765;DHT22;35657;51.204;-4.130;2023-08-21T11:35:41;22.20;99.90
49765;DHT22;35657;51.204;-4.130;2023-08-21T11:38:16;22.20;99.90
49765;DHT22;35657;51.204;-4.130;2023-08-21T11:40:50;22.30;99.90
49765;DHT22;35657;51.204;-4.130;2023-08-21T11:43:16;22.20;99.90
49765;DHT22;35657;51.204;-4.130;2023-08-21T11:45:41;22.30;99.90
49765;DHT22;35657;51.204;-4.130;2023-08-21T11:48:07;22.30;99.90
49765;DHT22;35657;51.204;-4.130;2023-08-21T11:50:33;22.30;99.90
49765;DHT22;35657;51.204;-4.130;2023-08-21T11:52:58;22.30;99.90
49765;DHT22;35657;51.204;-4.130;2023-08-21T11:55:24;22.50;99.90
49765;DHT22;35657;51.204;-4.130;2023-08-21T11:57:51;22.60;99.90
49765;DHT22;35657;51.204;-4.130;2023-08-21T12:00:18;22.80;99.90
49765;DHT22;35657;51.204;-4.130;2023-08-21T12:03:00;22.90;99.90
49765;DHT22;35657;51.204;-4.130;2023-08-21T12:05:28;23.10;99.90
49765;DHT22;35657;51.204;-4.130;2023-08-21T12:07:54;23.30;99.90
49765;DHT22;35657;51.204;-4.130;2023-08-21T12:10:27;23.50;99.90
49765;DHT22;35657;51.204;-4.130;2023-08-21T12:12:52;23.50;99.90
49765;DHT22;35657;51.204;-4.130;2023-08-21T12:15:19;23.50;99.90
49765;DHT22;35657;51.204;-4.130;2023-08-21T12:17:44;23.60;99.90
49765;DHT22;35657;51.204;-4.130;2023-08-21T12:20:10;23.60;99.90
49765;DHT22;35657;51.204;-4.130;2023-08-21T12:22:37;23.50;99.90
49765;DHT22;35657;51.204;-4.130;2023-08-21T12:25:04;23.30;99.90
49765;DHT22;35657;51.204;-4.130;2023-08-21T12:27:30;23.20;99.90
49765;DHT22;35657;51.204;-4.130;2023-08-21T12:29:56;23.10;99.90
49765;DHT22;35657;51.204;-4.130;2023-08-21T12:32:22;22.90;99.90
49765;DHT22;35657;51.204;-4.130;2023-08-21T12:34:47;22.80;99.90
49765;DHT22;35657;51.204;-4.130;2023-08-21T12:37:13;22.60;99.90
49765;DHT22;35657;51.204;-4.130;2023-08-21T12:39:39;22.40;99.90
49765;DHT22;35657;51.204;-4.130;2023-08-21T12:42:05;22.40;99.90
49765;DHT22;35657;51.204;-4.130;2023-08-21T12:44:33;22.50;99.90
49765;DHT22;35657;51.204;-4.130;2023-08-21T12:46:59;22.40;99.90
49765;DHT22;35657;51.204;-4.130;2023-08-21T12:49:25;22.50;99.90
49765;DHT22;35657;51.204;-4.130;2023-08-21T12:51:50;22.90;99.90
49765;DHT22;35657;51.204;-4.130;2023-08-21T12:54:16;22.90;99.90
49765;DHT22;35657;51.204;-4.130;2023-08-21T12:56:42;23.10;99.90
49765;DHT22;35657;51.204;-4.130;2023-08-21T12:59:08;23.20;99.90
49765;DHT22;35657;51.204;-4.130;2023-08-21T13:01:33;23.00;99.90
49765;DHT22;35657;51.204;-4.130;2023-08-21T13:04:01;23.10;99.90
49765;DHT22;35657;51.204;-4.130;2023-08-21T13:06:27;23.30;99.90
49765;DHT22;35657;51.204;-4.130;2023-08-21T13:08:53;23.40;99.90
49765;DHT22;35657;51.204;-4.130;2023-08-21T13:11:19;23.30;99.90
49765;DHT22;35657;51.204;-4.130;2023-08-21T13:13:45;23.30;99.90
49765;DHT22;35657;51.204;-4.130;2023-08-21T13:16:11;23.30;99.90
49765;DHT22;35657;51.204;-4.130;2023-08-21T13:18:36;23.20;99.90
49765;DHT22;35657;51.204;-4.130;2023-08-21T13:21:03;23.40;99.90
49765;DHT22;35657;51.204;-4.130;2023-08-21T13:23:29;23.40;99.90
49765;DHT22;35657;51.204;-4.130;2023-08-21T13:25:56;23.50;99.90
49765;DHT22;35657;51.204;-4.130;2023-08-21T13:28:23;23.60;99.90
49765;DHT22;35657;51.204;-4.130;2023-08-21T13:30:49;23.60;99.90
49765;DHT22;35657;51.204;-4.130;2023-08-21T13:33:15;23.60;99.90
49765;DHT22;35657;51.204;-4.130;2023-08-21T13:35:44;23.70;99.90
49765;DHT22;35657;51.204;-4.130;2023-08-21T13:38:10;23.80;99.90
49765;DHT22;35657;51.204;-4.130;2023-08-21T13:40:35;23.80;99.90
49765;DHT22;35657;51.204;-4.130;2023-08-21T13:43:01;23.80;99.90
49765;DHT22;35657;51.204;-4.130;2023-08-21T13:45:28;23.80;99.90
49765;DHT22;35657;51.204;-4.130;2023-08-21T13:47:54;24.10;99.90
49765;DHT22;35657;51.204;-4.130;2023-08-21T13:50:19;24.00;99.90
49765;DHT22;35657;51.204;-4.130;2023-08-21T13:52:47;24.00;99.90
49765;DHT22;35657;51.204;-4.130;2023-08-21T13:55:13;24.30;99.90
49765;DHT22;35657;51.204;-4.130;2023-08-21T13:57:39;24.60;99.90
49765;DHT22;35657;51.204;-4.130;2023-08-21T14:00:07;24.40;99.90
49765;DHT22;35657;51.204;-4.130;2023-08-21T14:02:36;24.60;99.90
49765;DHT22;35657;51.204;-4.130;2023-08-21T14:05:02;24.70;99.90
49765;DHT22;35657;51.204;-4.130;2023-08-21T14:07:32;24.70;99.90
49765;DHT22;35657;51.204;-4.130;2023-08-21T14:09:58;24.50;99.90
49765;DHT22;35657;51.204;-4.130;2023-08-21T14:12:24;24.40;99.90
49765;DHT22;35657;51.204;-4.130;2023-08-21T14:14:50;24.10;99.90
49765;DHT22;35657;51.204;-4.130;2023-08-21T14:17:16;23.80;99.90
49765;DHT22;35657;51.204;-4.130;2023-08-21T14:19:41;23.80;99.90
49765;DHT22;35657;51.204;-4.130;2023-08-21T14:22:07;23.90;99.90
49765;DHT22;35657;51.204;-4.130;2023-08-21T14:24:33;23.90;99.90
49765;DHT22;35657;51.204;-4.130;2023-08-21T14:26:59;24.00;99.90
49765;DHT22;35657;51.204;-4.130;2023-08-21T14:29:25;23.90;99.90
49765;DHT22;35657;51.204;-4.130;2023-08-21T14:31:50;24.00;99.90
49765;DHT22;35657;51.204;-4.130;2023-08-21T14:34:19;24.10;99.90
49765;DHT22;35657;51.204;-4.130;2023-08-21T14:36:47;24.30;99.90
49765;DHT22;35657;51.204;-4.130;2023-08-21T14:39:13;24.30;99.90
49765;DHT22;35657;51.204;-4.130;2023-08-21T14:41:41;24.20;99.90
49765;DHT22;35657;51.204;-4.130;2023-08-21T14:44:07;24.20;99.90
49765;DHT22;35657;51.204;-4.130;2023-08-21T14:46:32;24.10;99.90
49765;DHT22;35657;51.204;-4.130;2023-08-21T14:48:58;23.90;99.90
49765;DHT22;35657;51.204;-4.130;2023-08-21T14:51:24;23.80;99.90
49765;DHT22;35657;51.204;-4.130;2023-08-21T14:53:50;23.80;99.90
49765;DHT22;35657;51.204;-4.130;2023-08-21T14:56:16;23.70;99.90
49765;DHT22;35657;51.204;-4.130;2023-08-21T14:58:42;23.60;99.90
49765;DHT22;35657;51.204;-4.130;2023-08-21T15:01:09;23.60;99.90
49765;DHT22;35657;51.204;-4.130;2023-08-21T15:03:38;23.70;99.90
49765;DHT22;35657;51.204;-4.130;2023-08-21T15:06:04;23.60;99.90
49765;DHT22;35657;51.204;-4.130;2023-08-21T15:08:30;23.70;99.90
49765;DHT22;35657;51.204;-4.130;2023-08-21T15:10:56;23.60;99.90
49765;DHT22;35657;51.204;-4.130;2023-08-21T15:13:21;23.60;99.90
49765;DHT22;35657;51.204;-4.130;2023-08-21T15:15:47;23.70;99.90
49765;DHT22;35657;51.204;-4.130;2023-08-21T15:18:13;23.90;99.90
49765;DHT22;35657;51.204;-4.130;2023-08-21T15:20:38;23.90;99.90
49765;DHT22;35657;51.204;-4.130;2023-08-21T15:23:04;23.90;99.90
49765;DHT22;35657;51.204;-4.130;2023-08-21T15:25:30;23.70;99.90
49765;DHT22;35657;51.204;-4.130;2023-08-21T15:27:56;23.60;99.90